createdAt,value
2022-09-30T00:00:57.814Z,62.63
2022-09-30T00:01:57.828Z,46.97
2022-09-30T00:02:57.833Z,52.61
2022-09-30T00:03:57.833Z,45.47
2022-09-30T00:04:57.785Z,55.30
2022-09-30T00:05:58.277Z,39.18
2022-09-30T00:06:57.761Z,46.17
2022-09-30T00:07:57.761Z,47.26
2022-09-30T00:08:57.859Z,53.06
2022-09-30T00:09:59.261Z,38.69
2022-09-30T00:10:57.736Z,38.80
2022-09-30T00:11:57.721Z,45.66
2022-09-30T00:12:58.267Z,46.68
2022-09-30T00:13:57.723Z,46.01
2022-09-30T00:14:57.723Z,56.05
2022-09-30T00:15:57.778Z,54.27
2022-09-30T00:16:57.695Z,48.15
2022-09-30T00:17:57.682Z,47.49
2022-09-30T00:18:57.680Z,60.45
2022-09-30T00:19:57.694Z,54.09
2022-09-30T00:20:58.223Z,50.63
2022-09-30T00:21:57.651Z,46.78
2022-09-30T00:22:57.650Z,56.29
2022-09-30T00:23:57.639Z,54.08
2022-09-30T00:24:57.634Z,43.82
2022-09-30T00:25:57.640Z,52.45
2022-09-30T00:26:57.610Z,51.10
2022-09-30T00:27:57.601Z,52.30
2022-09-30T00:28:57.609Z,54.07
2022-09-30T00:31:49.196Z,47.15
2022-09-30T00:32:50.176Z,38.95
2022-09-30T00:33:50.176Z,46.28
2022-09-30T00:34:50.161Z,37.95
2022-09-30T00:35:50.164Z,42.98
2022-09-30T00:36:50.157Z,53.84
2022-09-30T00:37:50.149Z,51.12
2022-09-30T00:38:50.129Z,51.16
2022-09-30T00:39:50.122Z,39.45
2022-09-30T00:40:50.144Z,55.31
2022-09-30T00:41:50.118Z,48.27
2022-09-30T00:42:50.096Z,62.09
2022-09-30T00:43:50.102Z,51.81
2022-09-30T00:44:50.083Z,40.95
2022-09-30T00:45:50.052Z,59.83
2022-09-30T00:46:51.116Z,55.98
2022-09-30T00:47:50.066Z,40.50
2022-09-30T00:48:50.051Z,49.33
2022-09-30T00:49:50.042Z,58.21
2022-09-30T00:50:50.033Z,54.51
2022-09-30T00:51:50.020Z,44.84
2022-09-30T00:52:50.033Z,39.05
2022-09-30T00:53:50.003Z,42.71
2022-09-30T00:54:50.003Z,59.83
2022-09-30T00:55:49.992Z,56.98
2022-09-30T00:56:49.985Z,51.30
2022-09-30T00:57:49.979Z,56.39
2022-09-30T00:58:49.962Z,47.84
2022-09-30T00:59:49.955Z,50.69
2022-09-30T01:00:50.047Z,56.13
2022-09-30T01:01:49.967Z,56.30
2022-09-30T01:02:49.940Z,55.07
2022-09-30T01:03:49.922Z,48.16
2022-09-30T01:04:49.922Z,59.37
2022-09-30T01:05:49.906Z,46.22
2022-09-30T01:06:49.895Z,53.55
2022-09-30T01:07:49.907Z,42.04
2022-09-30T01:08:49.897Z,40.47
2022-09-30T01:09:49.920Z,59.28
2022-09-30T01:10:49.868Z,48.20
2022-09-30T01:11:49.857Z,48.17
2022-09-30T01:12:49.860Z,53.06
2022-09-30T01:13:49.852Z,57.72
2022-09-30T01:14:49.848Z,45.50
2022-09-30T01:15:49.898Z,45.86
2022-09-30T01:16:49.823Z,45.99
2022-09-30T01:17:49.819Z,51.20
2022-09-30T01:18:49.808Z,46.13
2022-09-30T01:19:49.806Z,51.70
2022-09-30T01:20:49.790Z,45.44
2022-09-30T01:21:49.795Z,48.48
2022-09-30T01:22:49.778Z,54.36
2022-09-30T01:23:49.771Z,50.25
2022-09-30T01:24:49.774Z,49.84
2022-09-30T01:25:49.751Z,58.02
2022-09-30T01:26:49.747Z,53.34
2022-09-30T01:27:49.738Z,44.45
2022-09-30T01:28:49.733Z,58.16
2022-09-30T01:29:49.727Z,60.46
2022-09-30T01:30:49.715Z,42.70
2022-09-30T01:31:49.766Z,49.66
2022-09-30T01:32:49.696Z,59.88
2022-09-30T01:33:49.699Z,46.25
2022-09-30T01:34:49.686Z,60.18
2022-09-30T01:35:49.669Z,50.37
2022-09-30T01:36:49.674Z,41.82
2022-09-30T01:37:49.656Z,50.72
2022-09-30T01:38:49.651Z,48.30
2022-09-30T01:39:49.639Z,55.31
2022-09-30T01:40:49.649Z,55.29
2022-09-30T01:41:49.620Z,56.09
2022-09-30T01:42:49.613Z,49.50
2022-09-30T01:43:49.621Z,53.42
2022-09-30T01:44:49.597Z,50.85
2022-09-30T01:45:49.592Z,39.86
2022-09-30T01:46:49.631Z,38.22
2022-09-30T01:47:49.577Z,48.35
2022-09-30T01:48:49.579Z,47.53
2022-09-30T01:49:49.558Z,54.78
2022-09-30T01:50:49.566Z,56.63
2022-09-30T01:51:49.536Z,60.79
2022-09-30T01:52:49.558Z,54.14
2022-09-30T01:53:49.516Z,55.13
2022-09-30T01:54:49.522Z,54.20
2022-09-30T01:55:49.509Z,56.63
2022-09-30T01:56:49.500Z,56.98
2022-09-30T01:57:49.488Z,49.32
2022-09-30T01:58:49.493Z,48.05
2022-09-30T01:59:49.473Z,60.29
2022-09-30T02:00:49.593Z,58.10
2022-09-30T02:01:49.486Z,61.34
2022-09-30T02:02:49.463Z,60.21
2022-09-30T02:03:49.450Z,55.75
2022-09-30T02:04:49.437Z,52.11
2022-09-30T02:05:50.046Z,46.12
2022-09-30T02:06:50.422Z,45.11
2022-09-30T02:07:49.426Z,56.35
2022-09-30T02:08:49.411Z,54.05
2022-09-30T02:09:49.494Z,46.83
2022-09-30T02:10:49.399Z,53.16
2022-09-30T02:11:49.385Z,55.13
2022-09-30T02:12:49.372Z,46.25
2022-09-30T02:13:49.366Z,58.38
2022-09-30T02:14:49.368Z,47.46
2022-09-30T02:15:49.385Z,42.18
2022-09-30T02:16:49.439Z,55.06
2022-09-30T02:17:49.342Z,46.67
2022-09-30T02:18:49.337Z,53.70
2022-09-30T02:19:49.324Z,48.09
2022-09-30T02:20:49.320Z,49.48
2022-09-30T02:21:49.319Z,41.45
2022-09-30T02:22:49.298Z,53.70
2022-09-30T02:23:49.289Z,47.77
2022-09-30T02:24:49.292Z,48.50
2022-09-30T02:25:49.317Z,53.53
2022-09-30T02:26:49.275Z,45.18
2022-09-30T02:27:49.262Z,51.26
2022-09-30T02:28:49.251Z,45.67
2022-09-30T02:29:49.254Z,52.14
2022-09-30T02:30:49.230Z,57.02
2022-09-30T02:31:49.276Z,57.13
2022-09-30T02:32:49.218Z,55.30
2022-09-30T02:33:49.209Z,47.95
2022-09-30T02:34:49.204Z,47.79
2022-09-30T02:35:49.195Z,53.57
2022-09-30T02:36:49.189Z,62.53
2022-09-30T02:37:49.170Z,55.84
2022-09-30T02:38:49.165Z,47.33
2022-09-30T02:39:49.175Z,56.17
2022-09-30T02:40:49.158Z,56.46
2022-09-30T02:41:49.186Z,41.03
2022-09-30T02:42:49.144Z,53.49
2022-09-30T02:43:49.135Z,50.58
2022-09-30T02:44:49.130Z,51.06
2022-09-30T02:45:49.112Z,42.77
2022-09-30T02:46:49.192Z,50.49
2022-09-30T02:47:49.099Z,56.78
2022-09-30T02:48:49.099Z,43.88
2022-09-30T02:49:49.081Z,53.48
2022-09-30T02:50:49.081Z,53.37
2022-09-30T02:51:49.075Z,53.53
2022-09-30T02:52:49.056Z,53.97
2022-09-30T02:53:49.055Z,59.93
2022-09-30T02:54:49.039Z,57.81
2022-09-30T02:55:49.023Z,62.27
2022-09-30T02:56:50.034Z,54.75
2022-09-30T02:57:49.019Z,58.04
2022-09-30T02:58:49.007Z,53.20
2022-09-30T02:59:49.009Z,49.02
2022-09-30T03:00:49.090Z,52.65
2022-09-30T03:01:49.043Z,46.93
2022-09-30T03:02:48.983Z,54.14
2022-09-30T03:03:48.975Z,58.21
2022-09-30T03:04:48.963Z,60.52
2022-09-30T03:05:48.953Z,58.08
2022-09-30T03:06:48.943Z,41.76
2022-09-30T03:07:48.950Z,57.74
2022-09-30T03:08:48.930Z,60.28
2022-09-30T03:09:48.991Z,62.37
2022-09-30T03:10:48.919Z,52.72
2022-09-30T03:11:48.905Z,50.91
2022-09-30T03:12:48.915Z,56.02
2022-09-30T03:13:48.890Z,64.18
2022-09-30T03:14:48.877Z,64.93
2022-09-30T03:15:48.915Z,52.67
2022-09-30T03:16:48.860Z,57.90
2022-09-30T03:17:48.865Z,60.14
2022-09-30T03:18:48.859Z,58.32
2022-09-30T03:19:48.850Z,64.18
2022-09-30T03:20:48.834Z,58.51
2022-09-30T03:21:48.842Z,57.87
2022-09-30T03:22:48.826Z,61.66
2022-09-30T03:23:48.805Z,56.49
2022-09-30T03:24:48.813Z,61.94
2022-09-30T03:25:48.796Z,63.96
2022-09-30T03:26:48.792Z,59.71
2022-09-30T03:27:48.782Z,60.84
2022-09-30T03:28:48.770Z,62.11
2022-09-30T03:29:48.761Z,62.60
2022-09-30T03:30:48.756Z,62.68
2022-09-30T03:31:48.801Z,65.54
2022-09-30T03:32:48.738Z,61.46
2022-09-30T03:33:48.738Z,64.89
2022-09-30T03:34:48.729Z,65.58
2022-09-30T03:35:48.725Z,62.54
2022-09-30T03:36:48.706Z,64.38
2022-09-30T03:37:48.699Z,63.27
2022-09-30T03:38:48.698Z,63.55
2022-09-30T03:39:48.684Z,66.50
2022-09-30T03:40:48.676Z,64.88
2022-09-30T03:41:48.669Z,61.71
2022-09-30T03:42:48.669Z,61.38
2022-09-30T03:43:48.660Z,63.58
2022-09-30T03:44:48.641Z,61.11
2022-09-30T03:45:48.655Z,62.23
2022-09-30T03:46:48.652Z,62.59
2022-09-30T03:47:48.647Z,61.02
2022-09-30T03:48:48.613Z,62.18
2022-09-30T03:49:48.601Z,62.32
2022-09-30T03:50:48.596Z,65.46
2022-09-30T03:51:50.940Z,62.63
2022-09-30T03:52:49.648Z,59.72
2022-09-30T03:53:48.569Z,58.77
2022-09-30T03:54:49.073Z,63.25
2022-09-30T03:55:48.559Z,59.80
2022-09-30T03:56:48.549Z,62.34
2022-09-30T03:57:48.537Z,62.37
2022-09-30T03:58:48.535Z,61.31
2022-09-30T03:59:48.526Z,58.10
2022-09-30T04:00:48.596Z,63.66
2022-09-30T04:01:48.572Z,64.71
2022-09-30T04:02:48.497Z,63.89
2022-09-30T04:03:48.485Z,64.45
2022-09-30T04:04:48.487Z,62.41
2022-09-30T04:05:48.476Z,63.92
2022-09-30T04:06:48.462Z,65.98
2022-09-30T04:07:48.453Z,63.70
2022-09-30T04:08:48.486Z,62.19
2022-09-30T04:09:48.610Z,62.49
2022-09-30T04:10:48.441Z,63.62
2022-09-30T04:11:48.434Z,61.30
2022-09-30T04:12:48.427Z,63.49
2022-09-30T04:13:48.426Z,64.68
2022-09-30T04:14:48.397Z,61.31
2022-09-30T04:15:48.393Z,59.12
2022-09-30T04:16:51.894Z,62.12
2022-09-30T04:17:50.375Z,64.34
2022-09-30T04:18:48.373Z,66.18
2022-09-30T04:19:48.360Z,68.48
2022-09-30T04:20:48.359Z,63.43
2022-09-30T04:21:48.356Z,65.71
2022-09-30T04:22:48.338Z,62.98
2022-09-30T04:23:48.341Z,62.68
2022-09-30T04:24:48.327Z,64.77
2022-09-30T04:25:48.356Z,64.54
2022-09-30T04:26:48.307Z,68.25
2022-09-30T04:27:48.318Z,65.76
2022-09-30T04:28:48.289Z,64.84
2022-09-30T04:29:48.278Z,64.12
2022-09-30T04:30:48.287Z,66.21
2022-09-30T04:31:48.322Z,65.80
2022-09-30T04:32:48.264Z,63.96
2022-09-30T04:33:48.264Z,65.69
2022-09-30T04:34:48.239Z,67.38
2022-09-30T04:35:48.227Z,66.12
2022-09-30T04:36:48.221Z,66.16
2022-09-30T04:37:48.213Z,65.75
2022-09-30T04:38:48.209Z,64.31
2022-09-30T04:39:48.195Z,62.87
2022-09-30T04:40:48.192Z,66.22
2022-09-30T04:41:48.179Z,61.80
2022-09-30T04:42:48.289Z,65.67
2022-09-30T04:43:48.169Z,63.47
2022-09-30T04:44:48.175Z,60.53
2022-09-30T04:45:48.228Z,65.50
2022-09-30T04:46:48.139Z,63.57
2022-09-30T04:47:48.134Z,63.78
2022-09-30T04:48:48.134Z,66.41
2022-09-30T04:49:48.119Z,66.97
2022-09-30T04:50:48.115Z,65.93
2022-09-30T04:51:48.115Z,65.84
2022-09-30T04:52:48.098Z,65.19
2022-09-30T04:53:48.096Z,67.66
2022-09-30T04:54:48.088Z,66.68
2022-09-30T04:55:48.080Z,69.03
2022-09-30T04:56:48.078Z,64.44
2022-09-30T04:57:49.011Z,66.02
2022-09-30T04:58:48.052Z,66.58
2022-09-30T04:59:48.050Z,66.06
2022-09-30T05:00:48.090Z,66.26
2022-09-30T05:01:48.108Z,65.01
2022-09-30T05:02:48.020Z,72.85
2022-09-30T05:03:48.591Z,69.23
2022-09-30T05:04:48.009Z,66.93
2022-09-30T05:05:48.007Z,67.03
2022-09-30T05:06:47.995Z,64.40
2022-09-30T05:07:47.978Z,64.94
2022-09-30T05:08:47.984Z,67.73
2022-09-30T05:09:47.984Z,67.79
2022-09-30T05:10:47.951Z,66.04
2022-09-30T05:11:47.957Z,64.91
2022-09-30T05:12:47.952Z,64.91
2022-09-30T05:13:47.944Z,68.11
2022-09-30T05:14:47.925Z,66.40
2022-09-30T05:15:47.958Z,66.08
2022-09-30T05:16:47.930Z,64.88
2022-09-30T05:17:47.908Z,66.26
2022-09-30T05:18:47.896Z,64.53
2022-09-30T05:21:54.173Z,69.96
2022-09-30T05:22:54.160Z,69.43
2022-09-30T05:23:54.160Z,68.46
2022-09-30T05:24:54.153Z,68.43
2022-09-30T05:25:54.141Z,68.18
2022-09-30T05:26:54.149Z,67.38
2022-09-30T05:27:54.126Z,67.90
2022-09-30T05:28:54.126Z,67.98
2022-09-30T05:29:54.104Z,69.50
2022-09-30T05:30:54.096Z,70.81
2022-09-30T05:31:54.145Z,68.76
2022-09-30T05:32:54.080Z,66.98
2022-09-30T05:33:57.884Z,69.83
2022-09-30T05:34:54.061Z,68.12
2022-09-30T05:35:54.059Z,69.12
2022-09-30T05:36:54.055Z,69.81
2022-09-30T05:37:55.029Z,70.48
2022-09-30T05:38:54.043Z,69.93
2022-09-30T05:39:54.033Z,68.96
2022-09-30T05:40:54.019Z,69.62
2022-09-30T05:41:54.014Z,69.75
2022-09-30T05:42:54.000Z,69.73
2022-09-30T05:43:54.011Z,70.85
2022-09-30T05:44:53.990Z,68.27
2022-09-30T05:45:53.985Z,69.66
2022-09-30T05:46:54.055Z,68.55
2022-09-30T05:47:53.962Z,70.29
2022-09-30T05:48:53.961Z,69.62
2022-09-30T05:49:56.178Z,69.22
2022-09-30T05:50:53.938Z,70.60
2022-09-30T05:51:53.929Z,69.19
2022-09-30T05:52:53.922Z,68.96
2022-09-30T05:53:53.926Z,74.67
2022-09-30T05:54:53.916Z,69.82
2022-09-30T05:55:53.899Z,70.04
2022-09-30T05:56:53.897Z,69.58
2022-09-30T05:57:53.893Z,68.01
2022-09-30T05:58:53.879Z,69.54
2022-09-30T05:59:53.889Z,69.68
2022-09-30T06:00:53.868Z,69.98
2022-09-30T06:01:55.055Z,69.84
2022-09-30T06:02:55.064Z,73.10
2022-09-30T06:03:54.941Z,70.75
2022-09-30T06:04:54.924Z,70.73
2022-09-30T06:05:54.931Z,69.41
2022-09-30T06:06:54.905Z,68.70
2022-09-30T06:07:54.932Z,66.72
2022-09-30T06:08:54.975Z,66.55
2022-09-30T06:09:54.911Z,66.79
2022-09-30T06:10:54.887Z,67.38
2022-09-30T06:11:54.879Z,66.98
2022-09-30T06:12:54.943Z,66.79
2022-09-30T06:13:54.849Z,67.07
2022-09-30T06:14:54.847Z,63.93
2022-09-30T06:15:54.850Z,65.55
2022-09-30T06:16:54.903Z,67.12
2022-09-30T06:17:55.626Z,68.75
2022-09-30T06:18:55.625Z,68.23
2022-09-30T06:19:54.805Z,68.61
2022-09-30T06:20:54.821Z,69.60
2022-09-30T06:21:54.783Z,67.10
2022-09-30T06:22:54.794Z,68.62
2022-09-30T06:23:54.768Z,67.78
2022-09-30T06:24:55.415Z,67.84
2022-09-30T06:25:55.768Z,67.83
2022-09-30T06:26:54.757Z,68.44
2022-09-30T06:27:54.745Z,69.22
2022-09-30T06:28:54.734Z,66.98
2022-09-30T06:29:54.723Z,67.03
2022-09-30T06:30:54.731Z,68.70
2022-09-30T06:31:54.853Z,65.87
2022-09-30T06:32:54.704Z,66.56
2022-09-30T06:33:54.688Z,68.46
2022-09-30T06:34:54.701Z,66.91
2022-09-30T06:35:54.693Z,66.86
2022-09-30T06:36:54.671Z,66.41
2022-09-30T06:37:54.677Z,65.68
2022-09-30T06:38:54.646Z,67.02
2022-09-30T06:39:54.660Z,68.47
2022-09-30T06:40:54.643Z,65.89
2022-09-30T06:41:54.622Z,67.25
2022-09-30T06:42:54.622Z,68.27
2022-09-30T06:43:58.398Z,67.62
2022-09-30T06:44:54.598Z,66.74
2022-09-30T06:46:04.319Z,67.35
2022-09-30T06:46:56.693Z,68.57
2022-09-30T06:48:00.050Z,65.25
2022-09-30T06:49:08.527Z,67.87
2022-09-30T06:49:56.570Z,67.36
2022-09-30T06:51:01.584Z,67.86
2022-09-30T06:51:56.546Z,68.59
2022-09-30T06:52:54.557Z,66.01
2022-09-30T06:53:54.530Z,67.75
2022-09-30T06:54:54.526Z,68.77
2022-09-30T06:55:54.525Z,68.61
2022-09-30T06:56:54.495Z,69.07
2022-09-30T06:57:54.493Z,68.35
2022-09-30T06:58:54.535Z,68.90
2022-09-30T06:59:54.511Z,68.35
2022-09-30T07:00:55.096Z,69.96
2022-09-30T07:01:54.526Z,68.69
2022-09-30T07:02:54.454Z,69.13
2022-09-30T07:03:54.821Z,68.98
2022-09-30T07:04:55.433Z,68.60
2022-09-30T07:05:54.438Z,68.17
2022-09-30T07:06:54.432Z,66.15
2022-09-30T07:07:54.418Z,66.53
2022-09-30T07:08:56.154Z,67.00
2022-09-30T07:09:57.558Z,66.74
2022-09-30T07:10:56.380Z,68.57
2022-09-30T07:11:54.374Z,66.11
2022-09-30T07:12:54.365Z,65.41
2022-09-30T07:13:54.409Z,65.47
2022-09-30T07:14:56.076Z,66.11
2022-09-30T07:15:54.349Z,68.38
2022-09-30T07:16:54.443Z,66.05
2022-09-30T07:17:55.276Z,67.50
2022-09-30T07:18:54.336Z,69.16
2022-09-30T07:19:54.441Z,68.80
2022-09-30T07:20:54.297Z,66.93
2022-09-30T07:21:54.306Z,67.27
2022-09-30T07:22:54.286Z,68.67
2022-09-30T07:23:54.918Z,66.56
2022-09-30T07:24:54.289Z,68.58
2022-09-30T07:25:54.284Z,66.34
2022-09-30T07:26:54.260Z,67.69
2022-09-30T07:27:54.283Z,66.13
2022-09-30T07:28:54.239Z,64.72
2022-09-30T07:30:08.874Z,67.53
2022-09-30T07:31:08.095Z,66.74
2022-09-30T07:31:56.284Z,67.35
2022-09-30T07:32:54.221Z,69.18
2022-09-30T07:33:54.197Z,71.83
2022-09-30T07:34:54.181Z,69.52
2022-09-30T07:35:54.180Z,67.11
2022-09-30T07:36:54.179Z,65.99
2022-09-30T07:37:54.169Z,66.20
2022-09-30T07:38:54.167Z,65.66
2022-09-30T07:39:54.156Z,66.86
2022-09-30T07:40:54.155Z,68.00
2022-09-30T07:41:54.165Z,65.02
2022-09-30T07:42:54.121Z,66.79
2022-09-30T07:43:54.108Z,67.76
2022-09-30T07:44:55.121Z,66.21
2022-09-30T07:45:54.202Z,66.78
2022-09-30T07:46:54.101Z,68.55
2022-09-30T07:47:54.172Z,65.28
2022-09-30T07:48:54.077Z,66.90
2022-09-30T07:49:54.061Z,66.50
2022-09-30T07:50:54.075Z,67.37
2022-09-30T07:51:54.103Z,68.72
2022-09-30T07:52:54.048Z,67.00
2022-09-30T07:53:54.034Z,66.96
2022-09-30T07:54:54.018Z,67.01
2022-09-30T07:55:54.026Z,67.19
2022-09-30T07:57:10.824Z,64.45
2022-09-30T07:57:56.017Z,65.77
2022-09-30T07:58:54.018Z,69.43
2022-09-30T07:59:53.984Z,68.26
2022-09-30T08:00:54.031Z,67.79
2022-09-30T08:01:53.999Z,67.43
2022-09-30T08:02:53.967Z,67.18
2022-09-30T08:03:53.960Z,67.93
2022-09-30T08:04:53.950Z,66.17
2022-09-30T08:05:53.948Z,65.28
2022-09-30T08:06:54.641Z,66.14
2022-09-30T08:07:53.925Z,67.09
2022-09-30T08:08:53.908Z,66.55
2022-09-30T08:09:53.960Z,65.19
2022-09-30T08:10:53.907Z,67.59
2022-09-30T08:11:54.061Z,66.57
2022-09-30T08:12:56.128Z,65.07
2022-09-30T08:13:54.866Z,67.62
2022-09-30T08:14:53.865Z,65.39
2022-09-30T08:15:53.861Z,70.13
2022-09-30T08:16:53.941Z,64.41
2022-09-30T08:17:53.847Z,65.98
2022-09-30T08:18:53.833Z,68.68
2022-09-30T08:19:53.830Z,67.46
2022-09-30T08:20:53.812Z,66.72
2022-09-30T08:21:53.882Z,69.51
2022-09-30T08:22:54.686Z,68.72
2022-09-30T08:23:53.795Z,66.42
2022-09-30T08:24:53.793Z,67.33
2022-09-30T08:25:53.782Z,66.84
2022-09-30T08:26:53.895Z,66.70
2022-09-30T08:27:53.765Z,67.38
2022-09-30T08:28:53.746Z,68.76
2022-09-30T08:29:56.093Z,66.85
2022-09-30T08:30:54.731Z,68.78
2022-09-30T08:31:53.765Z,67.40
2022-09-30T08:32:53.715Z,67.22
2022-09-30T08:33:53.710Z,68.37
2022-09-30T08:34:53.717Z,67.91
2022-09-30T08:35:53.695Z,66.28
2022-09-30T08:36:57.816Z,67.74
2022-09-30T08:37:55.710Z,68.45
2022-09-30T08:38:53.913Z,66.80
2022-09-30T08:39:53.679Z,68.52
2022-09-30T08:40:53.661Z,67.10
2022-09-30T08:41:53.654Z,67.45
2022-09-30T08:42:56.860Z,66.51
2022-09-30T08:43:54.634Z,66.34
2022-09-30T08:44:53.617Z,70.52
2022-09-30T08:45:53.683Z,67.10
2022-09-30T08:46:57.535Z,66.70
2022-09-30T08:47:54.600Z,66.99
2022-09-30T08:48:53.587Z,67.53
2022-09-30T08:49:53.581Z,66.51
2022-09-30T08:50:53.595Z,68.20
2022-09-30T08:51:53.605Z,66.69
2022-09-30T08:52:53.548Z,67.79
2022-09-30T08:53:53.542Z,69.05
2022-09-30T08:54:53.532Z,67.04
2022-09-30T08:55:53.530Z,67.35
2022-09-30T08:56:53.551Z,67.21
2022-09-30T08:57:53.526Z,68.54
2022-09-30T08:58:53.499Z,68.25
2022-09-30T08:59:53.492Z,66.93
2022-09-30T09:00:53.497Z,68.61
2022-09-30T09:01:56.118Z,68.50
2022-09-30T09:02:53.492Z,67.15
2022-09-30T09:03:54.152Z,69.48
2022-09-30T09:04:53.455Z,66.80
2022-09-30T09:05:53.451Z,66.00
2022-09-30T09:06:53.441Z,66.02
2022-09-30T09:07:53.444Z,65.44
2022-09-30T09:08:53.440Z,67.88
2022-09-30T09:09:53.432Z,68.21
2022-09-30T09:10:53.428Z,66.48
2022-09-30T09:11:53.406Z,66.87
2022-09-30T09:12:53.469Z,69.03
2022-09-30T09:13:53.394Z,67.41
2022-09-30T09:14:53.413Z,66.91
2022-09-30T09:15:53.369Z,67.52
2022-09-30T09:16:53.410Z,69.03
2022-09-30T09:18:18.204Z,68.09
2022-09-30T09:18:55.359Z,68.95
2022-09-30T09:19:53.340Z,69.48
2022-09-30T09:20:53.361Z,68.18
2022-09-30T09:21:53.320Z,68.00
2022-09-30T09:22:53.318Z,66.98
2022-09-30T09:23:53.318Z,67.25
2022-09-30T09:24:53.296Z,69.10
2022-09-30T09:25:53.299Z,65.07
2022-09-30T09:26:53.297Z,69.12
2022-09-30T09:27:53.325Z,67.38
2022-09-30T09:28:53.879Z,68.41
2022-09-30T09:29:54.164Z,68.90
2022-09-30T09:30:53.242Z,66.39
2022-09-30T09:31:53.326Z,65.82
2022-09-30T09:32:53.227Z,66.37
2022-09-30T09:33:53.235Z,67.64
2022-09-30T09:34:53.211Z,68.22
2022-09-30T09:35:53.202Z,65.96
2022-09-30T09:36:53.247Z,67.33
2022-09-30T09:37:54.083Z,67.16
2022-09-30T09:38:53.180Z,66.93
2022-09-30T09:39:53.201Z,65.75
2022-09-30T09:40:53.164Z,66.71
2022-09-30T09:41:54.707Z,66.69
2022-09-30T09:42:53.148Z,66.33
2022-09-30T09:43:53.139Z,68.37
2022-09-30T09:44:53.155Z,66.74
2022-09-30T09:45:53.198Z,67.04
2022-09-30T09:48:39.993Z,67.95
2022-09-30T09:49:41.655Z,66.40
2022-09-30T09:50:41.056Z,65.82
2022-09-30T09:51:41.051Z,66.62
2022-09-30T09:52:41.049Z,67.26
2022-09-30T09:53:41.037Z,66.40
2022-09-30T09:54:41.070Z,66.67
2022-09-30T09:55:41.038Z,65.90
2022-09-30T09:56:41.014Z,67.60
2022-09-30T09:57:41.924Z,65.71
2022-09-30T09:58:41.037Z,68.36
2022-09-30T09:59:41.056Z,67.39
2022-09-30T10:00:40.980Z,66.53
2022-09-30T10:01:41.006Z,67.57
2022-09-30T10:02:41.019Z,66.09
2022-09-30T10:03:40.951Z,67.33
2022-09-30T10:04:41.955Z,66.42
2022-09-30T10:05:40.948Z,66.55
2022-09-30T10:06:41.947Z,68.00
2022-09-30T10:07:40.930Z,69.38
2022-09-30T10:08:40.923Z,66.53
2022-09-30T10:09:40.912Z,66.01
2022-09-30T10:10:40.912Z,66.10
2022-09-30T10:11:43.436Z,66.85
2022-09-30T10:12:41.869Z,66.62
2022-09-30T10:13:40.887Z,67.40
2022-09-30T10:14:40.896Z,66.99
2022-09-30T10:15:40.898Z,67.73
2022-09-30T10:16:42.873Z,68.03
2022-09-30T10:17:40.990Z,65.95
2022-09-30T10:18:40.845Z,71.01
2022-09-30T10:19:41.836Z,70.78
2022-09-30T10:20:40.857Z,70.63
2022-09-30T10:21:40.822Z,66.78
2022-09-30T10:22:40.808Z,68.83
2022-09-30T10:23:40.826Z,65.47
2022-09-30T10:24:40.833Z,66.58
2022-09-30T10:27:47.121Z,69.77
2022-09-30T10:28:47.077Z,69.38
2022-09-30T10:29:47.067Z,69.23
2022-09-30T10:30:47.065Z,69.71
2022-09-30T10:31:47.109Z,67.29
2022-09-30T10:32:48.148Z,67.37
2022-09-30T10:33:49.143Z,68.19
2022-09-30T10:34:48.137Z,66.09
2022-09-30T10:35:48.108Z,67.75
2022-09-30T10:36:48.105Z,67.83
2022-09-30T10:37:51.397Z,66.90
2022-09-30T10:38:49.084Z,68.14
2022-09-30T10:39:48.542Z,65.36
2022-09-30T10:40:48.067Z,67.25
2022-09-30T10:41:48.065Z,66.62
2022-09-30T10:42:48.060Z,67.43
2022-09-30T10:43:48.052Z,67.32
2022-09-30T10:44:48.044Z,66.82
2022-09-30T10:46:06.974Z,66.35
2022-09-30T10:46:50.079Z,66.70
2022-09-30T10:47:48.012Z,65.24
2022-09-30T10:48:48.023Z,67.00
2022-09-30T10:49:49.047Z,66.80
2022-09-30T10:50:47.993Z,69.12
2022-09-30T10:51:48.004Z,68.02
2022-09-30T10:52:47.996Z,67.29
2022-09-30T10:53:48.502Z,67.06
2022-09-30T10:54:49.170Z,69.02
2022-09-30T10:55:47.961Z,68.93
2022-09-30T10:56:47.951Z,67.86
2022-09-30T10:57:48.025Z,66.51
2022-09-30T10:58:48.016Z,66.30
2022-09-30T10:59:47.930Z,67.97
2022-09-30T11:00:47.956Z,66.54
2022-09-30T11:01:47.946Z,65.95
2022-09-30T11:02:50.466Z,68.62
2022-09-30T11:03:50.564Z,67.14
2022-09-30T11:04:47.900Z,68.91
2022-09-30T11:05:47.905Z,68.22
2022-09-30T11:06:48.502Z,66.94
2022-09-30T11:07:47.863Z,65.96
2022-09-30T11:08:47.905Z,65.89
2022-09-30T11:09:47.862Z,67.48
2022-09-30T11:10:48.531Z,67.37
2022-09-30T11:11:47.822Z,66.24
2022-09-30T11:12:47.818Z,68.21
2022-09-30T11:13:47.805Z,67.52
2022-09-30T11:14:48.542Z,69.53
2022-09-30T11:15:47.794Z,68.48
2022-09-30T11:16:47.900Z,67.26
2022-09-30T11:17:47.822Z,68.76
2022-09-30T11:18:47.768Z,68.58
2022-09-30T11:19:47.762Z,68.70
2022-09-30T11:20:47.747Z,70.90
2022-09-30T11:21:48.541Z,68.35
2022-09-30T11:22:47.725Z,69.07
2022-09-30T11:23:49.540Z,66.32
2022-09-30T11:24:47.748Z,66.29
2022-09-30T11:25:47.718Z,67.73
2022-09-30T11:26:49.528Z,67.58
2022-09-30T11:27:47.763Z,70.45
2022-09-30T11:28:47.696Z,65.41
2022-09-30T11:29:47.696Z,66.16
2022-09-30T11:30:49.464Z,64.99
2022-09-30T11:31:47.713Z,66.11
2022-09-30T11:32:47.680Z,64.02
2022-09-30T11:33:47.644Z,65.31
2022-09-30T11:34:47.647Z,66.85
2022-09-30T11:35:47.660Z,64.78
2022-09-30T11:36:47.617Z,64.93
2022-09-30T11:37:47.610Z,64.76
2022-09-30T11:38:47.605Z,64.37
2022-09-30T11:39:47.596Z,65.97
2022-09-30T11:40:47.600Z,67.74
2022-09-30T11:41:47.577Z,67.98
2022-09-30T11:42:47.571Z,65.59
2022-09-30T11:43:47.567Z,66.32
2022-09-30T11:44:47.556Z,68.21
2022-09-30T11:45:47.584Z,65.98
2022-09-30T11:46:47.543Z,67.08
2022-09-30T11:47:47.528Z,67.64
2022-09-30T11:48:47.557Z,64.47
2022-09-30T11:49:47.528Z,64.14
2022-09-30T11:50:48.017Z,66.05
2022-09-30T11:51:47.499Z,65.86
2022-09-30T11:52:47.530Z,64.69
2022-09-30T11:53:48.019Z,64.24
2022-09-30T11:54:48.945Z,65.75
2022-09-30T11:55:47.500Z,66.81
2022-09-30T11:56:47.512Z,66.20
2022-09-30T11:57:47.488Z,65.20
2022-09-30T11:58:48.017Z,66.27
2022-09-30T11:59:47.433Z,65.66
2022-09-30T12:00:48.446Z,66.70
2022-09-30T12:01:47.469Z,67.53
2022-09-30T12:02:47.460Z,64.66
2022-09-30T12:03:47.407Z,66.30
2022-09-30T12:04:47.399Z,65.00
2022-09-30T12:05:48.025Z,65.80
2022-09-30T12:06:47.415Z,68.82
2022-09-30T12:07:47.376Z,65.70
2022-09-30T12:08:48.945Z,66.27
2022-09-30T12:09:47.359Z,69.19
2022-09-30T12:10:47.355Z,65.26
2022-09-30T12:11:47.387Z,65.22
2022-09-30T12:12:47.334Z,66.40
2022-09-30T12:13:47.349Z,64.80
2022-09-30T12:14:47.325Z,64.49
2022-09-30T12:15:48.043Z,66.36
2022-09-30T12:16:47.378Z,66.80
2022-09-30T12:17:47.337Z,65.88
2022-09-30T12:18:47.297Z,68.15
2022-09-30T12:19:47.420Z,68.76
2022-09-30T12:20:47.286Z,69.73
2022-09-30T12:21:47.285Z,68.15
2022-09-30T12:22:47.265Z,65.45
2022-09-30T12:23:47.250Z,65.36
2022-09-30T12:24:47.249Z,67.05
2022-09-30T12:25:47.246Z,64.60
2022-09-30T12:26:48.956Z,65.31
2022-09-30T12:28:17.468Z,66.60
2022-09-30T12:28:47.224Z,67.08
2022-09-30T12:29:47.227Z,66.49
2022-09-30T12:30:47.200Z,66.05
2022-09-30T12:31:47.222Z,66.06
2022-09-30T12:32:47.191Z,66.05
2022-09-30T12:33:47.171Z,64.92
2022-09-30T12:34:47.160Z,66.89
2022-09-30T12:35:47.158Z,65.99
2022-09-30T12:36:47.146Z,65.35
2022-09-30T12:37:47.147Z,64.05
2022-09-30T12:38:47.143Z,66.22
2022-09-30T12:39:47.128Z,67.20
2022-09-30T12:40:52.430Z,64.57
2022-09-30T12:41:48.118Z,64.68
2022-09-30T12:42:48.115Z,64.88
2022-09-30T12:43:47.090Z,66.57
2022-09-30T12:44:47.085Z,65.58
2022-09-30T12:45:47.117Z,64.64
2022-09-30T12:46:47.098Z,65.10
2022-09-30T12:47:47.064Z,65.55
2022-09-30T12:48:47.097Z,64.89
2022-09-30T12:49:47.045Z,64.66
2022-09-30T12:50:47.083Z,65.60
2022-09-30T12:51:47.038Z,66.33
2022-09-30T12:52:47.026Z,66.03
2022-09-30T12:53:47.017Z,63.50
2022-09-30T12:54:47.011Z,65.23
2022-09-30T12:55:46.999Z,64.26
2022-09-30T12:56:46.998Z,63.45
2022-09-30T12:57:46.996Z,66.86
2022-09-30T12:58:46.974Z,68.42
2022-09-30T12:59:46.980Z,67.93
2022-09-30T13:01:20.042Z,66.25